CW9688 Weather Reports


Display with metric or nautical units.
time (UTC)temp
F
wind
direction
speed
MPH
gust
MPH
rain 1hr
in
rain 24hr
in
rain mn
in
humidity
%
barometer
mb
20210616160803 92 359 2.0 6.0 0.00 0.00 0.00 25 1019.9
20210616155802 91 279 3.0 9.0 0.00 0.00 0.00 28 1020.1
20210616155305 90 124 1.0 3.0 0.00 0.00 0.00 33 1019.9
20210616154802 88 125 1.0 2.0 0.00 0.00 0.00 39 1020.0
20210616153803 86 125 1.0 1.0 0.00 0.00 0.00 41 1020.0
20210616153303 85 126 0.0 2.0 0.00 0.00 0.00 41 1019.9
20210616152802 85 126 1.0 2.0 0.00 0.00 0.00 43 1020.2
20210616152305 84 125 1.0 3.0 0.00 0.00 0.00 42 1020.2
20210616151802 83 125 0.0 2.0 0.00 0.00 0.00 43 1020.2
20210616150802 83 125 1.0 3.0 0.00 0.00 0.00 44 1020.2
20210616150302 82 123 1.0 5.0 0.00 0.00 0.00 44 1020.2
20210616145803 81 123 0.0 2.0 0.00 0.00 0.00 43 1020.2
20210616144802 81 123 2.0 6.0 0.00 0.00 0.00 46 1020.2
20210616144302 80 116 0.0 5.0 0.00 0.00 0.00 45 1020.1
20210616143802 81 102 3.0 7.0 0.00 0.00 0.00 46 1020.2
20210616143302 79 42 2.0 3.0 0.00 0.00 0.00 48 1020.2
20210616141303 74 273 0.0 2.0 0.00 0.00 0.00 54 1020.3
20210616140302 72 273 1.0 3.0 0.00 0.00 0.00 60 1020.3
20210616135802 75 273 0.0 2.0 0.00 0.00 0.00 51 1020.3
20210616134802 75 273 1.0 3.0 0.00 0.00 0.00 53 1020.1
20210616134302 74 272 0.0 0.0 0.00 0.00 0.00 52 1020.0
20210616133803 73 272 0.0 1.0 0.00 0.00 0.00 48 1020.0
20210616132802 72 296 2.0 3.0 0.00 0.00 0.00 49 1019.9
20210616132305 71 296 2.0 3.0 0.00 0.00 0.00 48 1019.9
20210616131802 71 296 1.0 3.0 0.00 0.00 0.00 46 1019.9
20210616131301 70 296 2.0 3.0 0.00 0.00 0.00 49 1019.9
20210616130802 69 296 2.0 3.0 0.00 0.00 0.00 47 1019.6
20210616130302 68 296 1.0 2.0 0.00 0.00 0.00 53 1019.6
20210616125802 67 296 1.0 2.0 0.00 0.00 0.00 52 1019.6
20210616124803 65 297 1.0 2.0 0.00 0.00 0.00 62 1019.6
20210616124303 65 297 0.0 3.0 0.00 0.00 0.00 60 1019.6
20210616123302 65 298 0.0 2.0 0.00 0.00 0.00 57 1019.5
20210616122802 64 299 2.0 3.0 0.00 0.00 0.00 55 1019.5
20210616122305 64 299 1.0 2.0 0.00 0.00 0.00 57 1019.4
20210616121802 63 299 1.0 2.0 0.00 0.00 0.00 57 1019.4
20210616120802 63 299 1.0 2.0 0.00 0.00 0.00 56 1019.2
20210616115802 62 187 0.0 1.0 0.00 0.00 0.00 57 1019.1
20210616115305 62 187 0.0 2.0 0.00 0.00 0.00 56 1019.1
20210616114803 62 187 2.0 3.0 0.00 0.00 0.00 57 1019.1
20210616114303 62 187 1.0 3.0 0.00 0.00 0.00 58 1019.1
20210616113802 61 187 1.0 2.0 0.00 0.00 0.00 59 1019.1
20210616113302 61 187 2.0 2.0 0.00 0.00 0.00 59 1019.0
20210616112803 61 187 1.0 2.0 0.00 0.00 0.00 60 1019.0
20210616111802 60 187 0.0 0.0 0.00 0.00 0.00 63 1019.0
20210616111303 60 187 0.0 0.0 0.00 0.00 0.00 64 1019.0
20210616110303 60 187 0.0 0.0 0.00 0.00 0.00 63 1019.1
20210616105802 60 187 0.0 0.0 0.00 0.00 0.00 64 1018.9
20210616104803 60 187 0.0 0.0 0.00 0.00 0.00 64 1019.1
20210616104303 61 187 0.0 0.0 0.00 0.00 0.00 62 1019.0
20210616103803 61 187 0.0 0.0 0.00 0.00 0.00 62 1019.0
20210616103302 61 187 0.0 0.0 0.00 0.00 0.00 62 1019.1
20210616102305 62 187 0.0 0.0 0.00 0.00 0.00 63 1019.0
20210616101802 62 187 0.0 0.0 0.00 0.00 0.00 63 1019.0
20210616100803 62 187 0.0 0.0 0.00 0.00 0.00 62 1018.7
20210616100303 62 187 0.0 0.0 0.00 0.00 0.00 63 1018.7
20210616095803 62 187 0.0 0.0 0.00 0.00 0.00 63 1018.7
20210616095306 63 187 0.0 0.0 0.00 0.00 0.00 62 1018.7
20210616094802 63 187 0.0 0.0 0.00 0.00 0.00 62 1018.6
20210616093802 63 187 0.0 0.0 0.00 0.00 0.00 60 1018.4
20210616092803 63 187 0.0 0.0 0.00 0.00 0.00 59 1018.3
20210616092305 64 187 0.0 0.0 0.00 0.00 0.00 58 1018.6
20210616091803 64 187 0.0 0.0 0.00 0.00 0.00 57 1018.7
20210616090803 65 187 0.0 0.0 0.00 0.00 0.00 56 1018.7
20210616090303 66 187 0.0 0.0 0.00 0.00 0.00 53 1018.6
20210616085802 66 187 0.0 0.0 0.00 0.00 0.00 54 1018.5
20210616085305 65 187 0.0 1.0 0.00 0.00 0.00 55 1018.3
20210616084802 65 187 0.0 1.0 0.00 0.00 0.00 56 1018.6
20210616084303 66 123 0.0 1.0 0.00 0.00 0.00 55 1018.6
20210616083302 66 138 0.0 0.0 0.00 0.00 0.00 54 1018.6
20210616082305 66 138 0.0 0.0 0.00 0.00 0.00 55 1018.7
20210616081803 66 138 0.0 0.0 0.00 0.00 0.00 57 1018.7
20210616080302 67 138 0.0 0.0 0.00 0.00 0.00 56 1018.6
20210616075802 67 138 0.0 0.0 0.00 0.00 0.00 55 1018.6
20210616074302 69 138 0.0 0.0 0.00 0.00 0.00 53 1018.5
20210616073303 69 138 0.0 0.0 0.00 0.00 0.00 54 1018.7
20210616072803 69 138 0.0 0.0 0.00 0.00 0.00 54 1018.7
20210616072305 70 138 0.0 0.0 0.00 0.00 0.00 53 1018.6
20210616071303 69 138 0.0 0.0 0.00 0.00 0.00 53 1018.6
20210616070302 71 138 0.0 0.0 0.00 0.00 0.00 51 1018.6
20210616065802 71 138 0.0 0.0 0.00 0.00 0.00 49 1018.7
20210616065305 71 138 0.0 0.0 0.00 0.00 0.00 49 1018.7
20210616064803 72 138 0.0 0.0 0.00 0.00 0.00 48 1018.7
20210616064302 73 138 0.0 0.0 0.00 0.00 0.00 48 1018.7
20210616063802 72 138 0.0 0.0 0.00 0.00 0.00 49 1018.8
20210616062804 74 138 0.0 0.0 0.00 0.00 0.00 47 1018.6
20210616062305 75 138 0.0 0.0 0.00 0.00 0.00 45 1018.6
20210616061302 78 138 2.0 7.0 0.00 0.00 0.00 42 1018.8
20210616060811 78 138 3.0 5.0 0.00 0.00 0.00 42 1018.8
20210616060302 78 138 3.0 6.0 0.00 0.00 0.00 43 1018.8
20210616055803 78 138 3.0 6.0 0.00 0.00 0.00 43 1018.8
20210616054802 78 138 2.0 8.0 0.00 0.00 0.00 43 1018.8
20210616054303 78 138 3.0 7.0 0.00 0.00 0.00 44 1018.8
20210616053302 77 138 1.0 3.0 0.00 0.00 0.00 47 1018.8
20210616051802 76 138 0.0 0.0 0.00 0.00 0.00 50 1018.6
20210616051303 76 138 0.0 0.0 0.00 0.00 0.00 50 1018.6
20210616050302 78 138 0.0 0.0 0.00 0.00 0.00 48 1019.0
20210616045802 77 138 0.0 0.0 0.00 0.00 0.00 49 1019.0
20210616045305 78 138 1.0 5.0 0.00 0.00 0.00 48 1019.0
20210616044803 79 138 1.0 3.0 0.00 0.00 0.00 47 1019.0
20210616044302 80 138 2.0 5.0 0.00 0.00 0.00 46 1019.0
20210616043803 79 138 3.0 6.0 0.00 0.00 0.00 46 1019.1
20210616043303 79 138 3.0 6.0 0.00 0.00 0.00 47 1019.2
20210616042803 79 138 3.0 12.0 0.00 0.00 0.00 48 1019.2
20210616042305 78 138 4.0 8.0 0.00 0.00 0.00 49 1019.3
20210616041303 76 138 0.0 0.0 0.00 0.00 0.00 51 1018.7
20210616040302 76 138 0.0 0.0 0.00 0.00 0.00 51 1018.4
20210616035802 76 138 0.0 0.0 0.00 0.00 0.00 49 1018.4
20210616035305 77 138 0.0 0.0 0.00 0.00 0.00 47 1018.4
20210616034803 78 138 0.0 0.0 0.00 0.00 0.00 47 1018.3
20210616034303 78 138 0.0 0.0 0.00 0.00 0.00 47 1018.6
20210616033302 80 138 0.0 0.0 0.00 0.00 0.00 45 1018.0
20210616032802 80 138 0.0 0.0 0.00 0.00 0.00 44 1017.8
20210616031802 81 138 0.0 0.0 0.00 0.00 0.00 41 1017.8
20210616031303 83 138 0.0 0.0 0.00 0.00 0.00 40 1017.7
20210616030802 83 138 0.0 0.0 0.00 0.00 0.00 40 1018.0
20210616030302 83 138 0.0 1.0 0.00 0.00 0.00 39 1017.6
20210616025803 82 138 0.0 6.0 0.00 0.00 0.00 39 1017.6
20210616025305 83 138 0.0 5.0 0.00 0.00 0.00 40 1017.5
20210616024803 83 138 0.0 0.0 0.00 0.00 0.00 39 1017.9
20210616024303 84 138 0.0 0.0 0.00 0.00 0.00 38 1018.0
20210616023803 86 138 1.0 5.0 0.00 0.00 0.00 37 1017.8
20210616022803 86 138 0.0 0.0 0.00 0.00 0.00 37 1017.6
20210616022305 86 138 0.0 3.0 0.00 0.00 0.00 36 1017.6
20210616020802 84 138 0.0 0.0 0.00 0.00 0.00 42 1017.6
20210616020303 84 138 0.0 0.0 0.00 0.00 0.00 40 1017.6
20210616015803 85 138 0.0 0.0 0.00 0.00 0.00 40 1017.4
20210616015305 85 138 0.0 0.0 0.00 0.00 0.00 39 1017.4
20210616014802 86 138 0.0 0.0 0.00 0.00 0.00 37 1017.4
20210616014302 87 138 0.0 0.0 0.00 0.00 0.00 36 1017.4
20210616013802 87 138 0.0 0.0 0.00 0.00 0.00 35 1017.5
20210616013302 88 138 0.0 0.0 0.00 0.00 0.00 34 1017.5
20210616012803 88 138 0.0 0.0 0.00 0.00 0.00 33 1017.5
20210616011802 90 138 0.0 0.0 0.00 0.00 0.00 28 1017.3
20210616011303 91 138 0.0 0.0 0.00 0.00 0.00 28 1017.3
20210616010802 92 138 0.0 0.0 0.00 0.00 0.00 30 1017.3
20210616010303 93 138 0.0 0.0 0.00 0.00 0.00 24 1017.3
20210616005802 94 138 0.0 0.0 0.00 0.00 0.00 24 1017.3
20210616005305 95 138 0.0 1.0 0.00 0.00 0.00 22 1017.3
20210616004802 96 138 2.0 3.0 0.00 0.00 0.00 23 1017.3
20210616004302 96 138 3.0 7.0 0.00 0.00 0.00 21 1017.3
20210616002802 97 138 3.0 6.0 0.00 0.00 0.00 20 1017.3
20210616002305 97 138 1.0 3.0 0.00 0.00 0.00 24 1017.3
20210616001802 98 138 3.0 6.0 0.00 0.00 0.00 21 1017.6
20210616001303 98 138 1.0 5.0 0.00 0.00 0.00 22 1017.6
20210616000302 98 138 0.0 7.0 0.00 0.00 0.00 19 1017.3
20210615235803 98 138 2.0 9.0 0.00 0.00 0.00 21 1017.3
20210615234303 99 138 3.0 7.0 0.00 0.00 0.00 19 1017.5
20210615233803 99 138 5.0 12.0 0.00 0.00 0.00 20 1017.5
20210615233302 99 153 3.0 6.0 0.00 0.00 0.00 18 1017.6
20210615232305 99 128 4.0 8.0 0.00 0.00 0.00 18 1017.8
20210615231802 100 128 0.0 2.0 0.00 0.00 0.00 23 1017.8
20210615231303 100 125 0.0 6.0 0.00 0.00 0.00 24 1017.6
20210615230302 100 125 6.0 12.0 0.00 0.00 0.00 21 1017.7
20210615225803 100 125 5.0 9.0 0.00 0.00 0.00 21 1017.8
20210615225305 100 125 5.0 9.0 0.00 0.00 0.00 22 1017.9
20210615224803 99 125 2.0 7.0 0.00 0.00 0.00 21 1017.9
20210615224304 99 125 3.0 8.0 0.00 0.00 0.00 21 1017.8
20210615223802 99 125 3.0 12.0 0.00 0.00 0.00 19 1017.8
20210615222803 100 125 7.0 9.0 0.00 0.00 0.00 21 1017.8
20210615222304 100 125 1.0 6.0 0.00 0.00 0.00 20 1018.2
20210615221803 100 125 3.0 9.0 0.00 0.00 0.00 22 1018.2
20210615221303 100 125 1.0 5.0 0.00 0.00 0.00 18 1018.2
20210615220802 100 125 1.0 6.0 0.00 0.00 0.00 17 1018.2
20210615220303 100 125 3.0 8.0 0.00 0.00 0.00 19 1018.2
20210615215803 100 125 6.0 12.0 0.00 0.00 0.00 20 1018.2
20210615215305 100 125 3.0 8.0 0.00 0.00 0.00 21 1018.2
20210615214803 100 125 1.0 7.0 0.00 0.00 0.00 19 1018.2
20210615213803 99 125 4.0 7.0 0.00 0.00 0.00 23 1018.2
20210615213302 99 125 2.0 6.0 0.00 0.00 0.00 20 1018.3
20210615212305 100 125 1.0 8.0 0.00 0.00 0.00 22 1018.2
20210615210802 98 125 0.0 7.0 0.00 0.00 0.00 23 1018.3
20210615210303 99 125 3.0 9.0 0.00 0.00 0.00 23 1018.4
20210615205305 99 125 1.0 3.0 0.00 0.00 0.00 24 1018.8
20210615204802 99 125 6.0 8.0 0.00 0.00 0.00 25 1018.8
20210615204303 99 125 2.0 6.0 0.00 0.00 0.00 27 1018.6
20210615203303 98 125 5.0 7.0 0.00 0.00 0.00 26 1019.0
20210615202305 98 125 6.0 8.0 0.00 0.00 0.00 28 1019.0
20210615201802 98 125 1.0 3.0 0.00 0.00 0.00 28 1019.0
20210615201303 99 125 2.0 7.0 0.00 0.00 0.00 28 1019.0
20210615200802 97 125 3.0 6.0 0.00 0.00 0.00 27 1019.1
20210615200302 97 125 0.0 1.0 0.00 0.00 0.00 28 1019.1
20210615195305 97 125 6.0 12.0 0.00 0.00 0.00 30 1019.5
20210615194803 96 125 0.0 3.0 0.00 0.00 0.00 32 1019.2
20210615194303 96 125 3.0 6.0 0.00 0.00 0.00 29 1019.2
20210615193802 96 125 1.0 7.0 0.00 0.00 0.00 30 1019.3
20210615193302 97 125 0.0 8.0 0.00 0.00 0.00 30 1019.6
20210615192802 96 125 3.0 7.0 0.00 0.00 0.00 32 1019.7
20210615191803 95 125 1.0 3.0 0.00 0.00 0.00 31 1019.8
20210615191303 94 125 0.0 5.0 0.00 0.00 0.00 34 1020.0
20210615190802 94 125 2.0 6.0 0.00 0.00 0.00 33 1019.9
20210615190303 93 125 2.0 8.0 0.00 0.00 0.00 34 1019.9
20210615185802 93 125 3.0 7.0 0.00 0.00 0.00 34 1019.9
20210615184803 92 125 3.0 7.0 0.00 0.00 0.00 36 1020.2
20210615184303 92 125 1.0 7.0 0.00 0.00 0.00 36 1020.2
20210615183303 92 125 2.0 8.0 0.00 0.00 0.00 35 1020.3
20210615182803 92 125 2.0 6.0 0.00 0.00 0.00 36 1020.3
20210615182304 92 125 3.0 6.0 0.00 0.00 0.00 36 1020.5
20210615181802 92 125 4.0 8.0 0.00 0.00 0.00 35 1020.5
20210615181303 91 125 0.0 3.0 0.00 0.00 0.00 37 1020.5
20210615180302 90 125 3.0 6.0 0.00 0.00 0.00 37 1020.6
20210615175802 90 126 6.0 12.0 0.00 0.00 0.00 36 1020.6
20210615175305 90 126 2.0 8.0 0.00 0.00 0.00 39 1020.7
20210615174802 89 126 5.0 12.0 0.00 0.00 0.00 38 1020.7
20210615174302 89 126 3.0 12.0 0.00 0.00 0.00 38 1020.8
20210615173803 90 144 3.0 7.0 0.00 0.00 0.00 40 1020.7
20210615173302 88 144 2.0 8.0 0.00 0.00 0.00 40 1020.7
20210615172305 88 157 3.0 9.0 0.00 0.00 0.00 40 1020.8
20210615171304 87 187 1.0 6.0 0.00 0.00 0.00 41 1020.8
20210615170802 86 187 1.0 5.0 0.00 0.00 0.00 41 1021.3
20210615165802 86 187 2.0 3.0 0.00 0.00 0.00 44 1021.3
20210615165305 84 187 0.0 0.0 0.00 0.00 0.00 42 1020.9
20210615164802 85 187 1.0 3.0 0.00 0.00 0.00 42 1020.9
20210615164302 84 187 1.0 3.0 0.00 0.00 0.00 42 1021.0
20210615163802 84 187 2.0 3.0 0.00 0.00 0.00 43 1020.9
20210615163302 84 187 2.0 3.0 0.00 0.00 0.00 43 1021.0